sensor_id;sensor_type;location;lat;lon;timestamp;temperature;humidity
69324;DHT22;56470;47.350;8.718;2023-06-19T04:53:21;22.83;65.43
69324;DHT22;56470;47.350;8.718;2023-06-19T04:55:46;22.85;65.65
69324;DHT22;56470;47.350;8.718;2023-06-19T04:58:11;22.90;65.83
69324;DHT22;56470;47.350;8.718;2023-06-19T05:00:37;22.94;65.75
69324;DHT22;56470;47.350;8.718;2023-06-19T05:03:02;22.87;65.63
69324;DHT22;56470;47.350;8.718;2023-06-19T05:05:28;22.68;65.69
69324;DHT22;56470;47.350;8.718;2023-06-19T05:07:53;22.51;66.47
69324;DHT22;56470;47.350;8.718;2023-06-19T05:10:19;22.42;67.15
69324;DHT22;56470;47.350;8.718;2023-06-19T05:12:44;22.26;67.56
69324;DHT22;56470;47.350;8.718;2023-06-19T05:15:10;21.94;67.94
69324;DHT22;56470;47.350;8.718;2023-06-19T05:17:35;21.70;69.14
69324;DHT22;56470;47.350;8.718;2023-06-19T05:20:06;21.53;69.61
69324;DHT22;56470;47.350;8.718;2023-06-19T05:22:32;21.37;71.12
69324;DHT22;56470;47.350;8.718;2023-06-19T05:24:59;21.26;70.58
69324;DHT22;56470;47.350;8.718;2023-06-19T05:27:25;21.05;71.54
69324;DHT22;56470;47.350;8.718;2023-06-19T05:29:50;20.90;72.21
69324;DHT22;56470;47.350;8.718;2023-06-19T05:32:15;20.75;72.48
69324;DHT22;56470;47.350;8.718;2023-06-19T05:34:40;20.73;72.20
69324;DHT22;56470;47.350;8.718;2023-06-19T05:37:06;20.71;72.01
69324;DHT22;56470;47.350;8.718;2023-06-19T05:39:31;20.67;72.13
69324;DHT22;56470;47.350;8.718;2023-06-19T05:41:56;20.56;72.68
69324;DHT22;56470;47.350;8.718;2023-06-19T05:44:22;20.46;72.97
69324;DHT22;56470;47.350;8.718;2023-06-19T05:46:47;20.41;73.83
69324;DHT22;56470;47.350;8.718;2023-06-19T05:49:12;20.37;73.94
69324;DHT22;56470;47.350;8.718;2023-06-19T05:51:38;20.36;74.11
69324;DHT22;56470;47.350;8.718;2023-06-19T05:54:03;20.33;74.22
69324;DHT22;56470;47.350;8.718;2023-06-19T05:56:30;20.32;74.33
69324;DHT22;56470;47.350;8.718;2023-06-19T05:58:56;20.20;74.72
69324;DHT22;56470;47.350;8.718;2023-06-19T06:01:21;20.12;75.28
69324;DHT22;56470;47.350;8.718;2023-06-19T06:03:46;20.05;75.40
69324;DHT22;56470;47.350;8.718;2023-06-19T06:06:12;19.94;75.51
69324;DHT22;56470;47.350;8.718;2023-06-19T06:08:37;19.89;76.15
69324;DHT22;56470;47.350;8.718;2023-06-19T06:11:02;19.78;76.89
69324;DHT22;56470;47.350;8.718;2023-06-19T06:13:28;19.74;76.63
69324;DHT22;56470;47.350;8.718;2023-06-19T06:15:53;19.73;76.86
69324;DHT22;56470;47.350;8.718;2023-06-19T06:18:18;19.68;77.66
69324;DHT22;56470;47.350;8.718;2023-06-19T06:20:44;19.60;77.92
69324;DHT22;56470;47.350;8.718;2023-06-19T06:23:09;19.61;77.36
69324;DHT22;56470;47.350;8.718;2023-06-19T06:25:34;19.64;77.73
69324;DHT22;56470;47.350;8.718;2023-06-19T06:28:00;19.71;77.51
69324;DHT22;56470;47.350;8.718;2023-06-19T06:30:25;19.74;77.60
69324;DHT22;56470;47.350;8.718;2023-06-19T06:32:52;19.73;77.75
69324;DHT22;56470;47.350;8.718;2023-06-19T06:35:17;19.73;78.36
69324;DHT22;56470;47.350;8.718;2023-06-19T06:37:43;19.73;77.76
69324;DHT22;56470;47.350;8.718;2023-06-19T06:40:11;19.75;77.94
69324;DHT22;56470;47.350;8.718;2023-06-19T06:42:39;19.78;79.00
69324;DHT22;56470;47.350;8.718;2023-06-19T06:45:08;19.94;78.86
69324;DHT22;56470;47.350;8.718;2023-06-19T06:47:36;20.19;78.23
69324;DHT22;56470;47.350;8.718;2023-06-19T06:50:02;20.41;77.87
69324;DHT22;56470;47.350;8.718;2023-06-19T06:52:28;20.70;77.58
69324;DHT22;56470;47.350;8.718;2023-06-19T06:54:55;20.85;76.66
69324;DHT22;56470;47.350;8.718;2023-06-19T06:57:20;21.01;76.26
69324;DHT22;56470;47.350;8.718;2023-06-19T06:59:46;21.12;75.60
69324;DHT22;56470;47.350;8.718;2023-06-19T07:02:12;21.32;75.32
69324;DHT22;56470;47.350;8.718;2023-06-19T07:04:37;21.63;75.18
69324;DHT22;56470;47.350;8.718;2023-06-19T07:07:03;21.91;74.82
69324;DHT22;56470;47.350;8.718;2023-06-19T07:09:31;22.19;74.22
69324;DHT22;56470;47.350;8.718;2023-06-19T07:11:58;22.44;74.09
69324;DHT22;56470;47.350;8.718;2023-06-19T07:14:24;22.75;73.73
69324;DHT22;56470;47.350;8.718;2023-06-19T07:16:49;23.04;73.28
69324;DHT22;56470;47.350;8.718;2023-06-19T07:19:18;23.34;72.50
69324;DHT22;56470;47.350;8.718;2023-06-19T07:21:43;23.49;71.86
69324;DHT22;56470;47.350;8.718;2023-06-19T07:24:09;23.61;70.99
69324;DHT22;56470;47.350;8.718;2023-06-19T07:26:34;23.64;70.20
69324;DHT22;56470;47.350;8.718;2023-06-19T07:28:59;23.71;70.31
69324;DHT22;56470;47.350;8.718;2023-06-19T07:31:25;23.94;70.14
69324;DHT22;56470;47.350;8.718;2023-06-19T07:33:50;24.11;69.29
69324;DHT22;56470;47.350;8.718;2023-06-19T07:36:16;24.26;69.32
69324;DHT22;56470;47.350;8.718;2023-06-19T07:38:45;24.43;68.62
69324;DHT22;56470;47.350;8.718;2023-06-19T07:41:10;24.46;68.30
69324;DHT22;56470;47.350;8.718;2023-06-19T07:43:37;24.67;68.23
69324;DHT22;56470;47.350;8.718;2023-06-19T07:46:03;24.87;67.75
69324;DHT22;56470;47.350;8.718;2023-06-19T07:48:28;25.07;67.08
69324;DHT22;56470;47.350;8.718;2023-06-19T07:50:53;25.19;66.68
69324;DHT22;56470;47.350;8.718;2023-06-19T07:53:19;25.30;65.89
69324;DHT22;56470;47.350;8.718;2023-06-19T07:55:44;25.43;65.44
69324;DHT22;56470;47.350;8.718;2023-06-19T07:58:09;25.46;65.14
69324;DHT22;56470;47.350;8.718;2023-06-19T08:00:35;25.43;65.17
69324;DHT22;56470;47.350;8.718;2023-06-19T08:03:00;25.56;65.50
69324;DHT22;56470;47.350;8.718;2023-06-19T08:05:26;25.80;65.29
69324;DHT22;56470;47.350;8.718;2023-06-19T08:07:55;26.12;64.85
69324;DHT22;56470;47.350;8.718;2023-06-19T08:10:21;26.43;64.13
69324;DHT22;56470;47.350;8.718;2023-06-19T08:12:46;26.71;63.44
69324;DHT22;56470;47.350;8.718;2023-06-19T08:15:12;26.95;62.57
69324;DHT22;56470;47.350;8.718;2023-06-19T08:17:40;27.14;61.64
69324;DHT22;56470;47.350;8.718;2023-06-19T08:20:06;27.36;60.46
69324;DHT22;56470;47.350;8.718;2023-06-19T08:22:32;27.43;59.86
69324;DHT22;56470;47.350;8.718;2023-06-19T08:24:57;27.57;59.56
69324;DHT22;56470;47.350;8.718;2023-06-19T08:27:22;27.76;58.91
69324;DHT22;56470;47.350;8.718;2023-06-19T08:29:48;27.85;58.07
69324;DHT22;56470;47.350;8.718;2023-06-19T08:32:13;27.95;57.45
69324;DHT22;56470;47.350;8.718;2023-06-19T08:34:38;28.02;57.18
69324;DHT22;56470;47.350;8.718;2023-06-19T08:37:07;28.16;56.75
69324;DHT22;56470;47.350;8.718;2023-06-19T08:39:32;28.22;56.06
69324;DHT22;56470;47.350;8.718;2023-06-19T08:41:57;28.25;55.95
69324;DHT22;56470;47.350;8.718;2023-06-19T08:44:22;28.36;55.56
69324;DHT22;56470;47.350;8.718;2023-06-19T08:46:48;28.43;55.03
69324;DHT22;56470;47.350;8.718;2023-06-19T08:49:13;28.59;54.72
69324;DHT22;56470;47.350;8.718;2023-06-19T08:51:40;28.73;54.33
69324;DHT22;56470;47.350;8.718;2023-06-19T08:54:07;28.86;54.31
69324;DHT22;56470;47.350;8.718;2023-06-19T08:56:33;28.95;54.01
69324;DHT22;56470;47.350;8.718;2023-06-19T08:59:09;29.01;52.82
69324;DHT22;56470;47.350;8.718;2023-06-19T09:01:35;29.14;53.37
69324;DHT22;56470;47.350;8.718;2023-06-19T09:04:08;29.30;52.03
69324;DHT22;56470;47.350;8.718;2023-06-19T09:06:33;29.46;52.33
69324;DHT22;56470;47.350;8.718;2023-06-19T09:09:04;29.64;51.90
69324;DHT22;56470;47.350;8.718;2023-06-19T09:11:31;29.87;51.25
69324;DHT22;56470;47.350;8.718;2023-06-19T09:13:57;29.98;50.94
69324;DHT22;56470;47.350;8.718;2023-06-19T09:16:23;30.15;50.17
69324;DHT22;56470;47.350;8.718;2023-06-19T09:18:49;30.31;49.71
69324;DHT22;56470;47.350;8.718;2023-06-19T09:21:19;30.31;48.75
69324;DHT22;56470;47.350;8.718;2023-06-19T09:23:46;30.35;48.59
69324;DHT22;56470;47.350;8.718;2023-06-19T09:26:14;30.46;47.93
69324;DHT22;56470;47.350;8.718;2023-06-19T09:28:40;30.63;48.01
69324;DHT22;56470;47.350;8.718;2023-06-19T09:31:07;30.74;47.54
69324;DHT22;56470;47.350;8.718;2023-06-19T09:33:34;30.87;47.73
69324;DHT22;56470;47.350;8.718;2023-06-19T09:36:01;30.98;47.92
69324;DHT22;56470;47.350;8.718;2023-06-19T09:38:28;31.14;47.95
69324;DHT22;56470;47.350;8.718;2023-06-19T09:40:56;31.23;47.89
69324;DHT22;56470;47.350;8.718;2023-06-19T09:43:28;31.40;47.59
69324;DHT22;56470;47.350;8.718;2023-06-19T09:45:55;31.53;47.63
69324;DHT22;56470;47.350;8.718;2023-06-19T09:48:29;31.65;47.32
69324;DHT22;56470;47.350;8.718;2023-06-19T09:51:00;31.70;46.48
69324;DHT22;56470;47.350;8.718;2023-06-19T09:53:26;31.73;47.34
69324;DHT22;56470;47.350;8.718;2023-06-19T09:55:52;31.70;47.26
69324;DHT22;56470;47.350;8.718;2023-06-19T09:58:19;31.69;47.07
69324;DHT22;56470;47.350;8.718;2023-06-19T10:00:46;31.63;46.85
69324;DHT22;56470;47.350;8.718;2023-06-19T10:03:13;31.65;46.54
69324;DHT22;56470;47.350;8.718;2023-06-19T10:05:38;31.70;46.38
69324;DHT22;56470;47.350;8.718;2023-06-19T10:08:04;31.69;45.59
69324;DHT22;56470;47.350;8.718;2023-06-19T10:10:30;31.50;45.32
69324;DHT22;56470;47.350;8.718;2023-06-19T10:12:58;31.32;45.36
69324;DHT22;56470;47.350;8.718;2023-06-19T10:15:26;31.32;45.56
69324;DHT22;56470;47.350;8.718;2023-06-19T10:18:04;31.35;45.29
69324;DHT22;56470;47.350;8.718;2023-06-19T10:20:35;31.40;45.08
69324;DHT22;56470;47.350;8.718;2023-06-19T10:23:13;31.43;45.48
69324;DHT22;56470;47.350;8.718;2023-06-19T10:25:44;31.38;45.22
69324;DHT22;56470;47.350;8.718;2023-06-19T10:28:27;31.16;44.18
69324;DHT22;56470;47.350;8.718;2023-06-19T10:30:53;31.02;45.17
69324;DHT22;56470;47.350;8.718;2023-06-19T10:33:20;30.98;45.32
69324;DHT22;56470;47.350;8.718;2023-06-19T10:35:45;31.02;45.18
69324;DHT22;56470;47.350;8.718;2023-06-19T10:38:14;31.07;45.14
69324;DHT22;56470;47.350;8.718;2023-06-19T10:40:41;31.04;45.28
69324;DHT22;56470;47.350;8.718;2023-06-19T10:43:06;30.97;45.46
69324;DHT22;56470;47.350;8.718;2023-06-19T10:45:32;30.99;45.39
69324;DHT22;56470;47.350;8.718;2023-06-19T10:48:00;30.99;45.22
69324;DHT22;56470;47.350;8.718;2023-06-19T10:50:27;31.05;45.03
69324;DHT22;56470;47.350;8.718;2023-06-19T10:52:53;31.14;44.85
69324;DHT22;56470;47.350;8.718;2023-06-19T10:55:20;31.16;44.38
69324;DHT22;56470;47.350;8.718;2023-06-19T10:57:47;31.16;44.19
69324;DHT22;56470;47.350;8.718;2023-06-19T11:00:23;31.11;43.76
69324;DHT22;56470;47.350;8.718;2023-06-19T11:02:48;31.15;44.32
69324;DHT22;56470;47.350;8.718;2023-06-19T11:05:14;31.16;44.38
69324;DHT22;56470;47.350;8.718;2023-06-19T11:07:39;31.16;43.89
69324;DHT22;56470;47.350;8.718;2023-06-19T11:10:05;31.15;43.27
69324;DHT22;56470;47.350;8.718;2023-06-19T11:12:31;31.15;42.70
69324;DHT22;56470;47.350;8.718;2023-06-19T11:14:58;31.12;42.71
69324;DHT22;56470;47.350;8.718;2023-06-19T11:17:24;31.11;42.68
69324;DHT22;56470;47.350;8.718;2023-06-19T11:19:50;31.10;42.41
69324;DHT22;56470;47.350;8.718;2023-06-19T11:22:16;31.11;42.27
69324;DHT22;56470;47.350;8.718;2023-06-19T11:24:47;31.05;41.38
69324;DHT22;56470;47.350;8.718;2023-06-19T11:27:18;31.08;41.84
69324;DHT22;56470;47.350;8.718;2023-06-19T11:29:44;31.05;42.22
69324;DHT22;56470;47.350;8.718;2023-06-19T11:32:13;30.98;41.77
69324;DHT22;56470;47.350;8.718;2023-06-19T11:34:39;30.78;42.20
69324;DHT22;56470;47.350;8.718;2023-06-19T11:37:13;30.73;41.39
69324;DHT22;56470;47.350;8.718;2023-06-19T11:39:40;30.66;42.24
69324;DHT22;56470;47.350;8.718;2023-06-19T11:42:07;30.66;42.22
69324;DHT22;56470;47.350;8.718;2023-06-19T11:44:32;30.57;42.20
69324;DHT22;56470;47.350;8.718;2023-06-19T11:46:58;30.60;42.12
69324;DHT22;56470;47.350;8.718;2023-06-19T11:49:26;30.56;42.12
69324;DHT22;56470;47.350;8.718;2023-06-19T11:51:53;30.46;41.51
69324;DHT22;56470;47.350;8.718;2023-06-19T11:54:19;30.36;41.38
69324;DHT22;56470;47.350;8.718;2023-06-19T11:56:44;30.32;41.50
69324;DHT22;56470;47.350;8.718;2023-06-19T11:59:09;30.35;41.49
69324;DHT22;56470;47.350;8.718;2023-06-19T12:01:36;30.28;41.46
69324;DHT22;56470;47.350;8.718;2023-06-19T12:04:03;30.31;41.46
69324;DHT22;56470;47.350;8.718;2023-06-19T12:06:29;30.29;41.44
69324;DHT22;56470;47.350;8.718;2023-06-19T12:09:03;30.19;41.03
69324;DHT22;56470;47.350;8.718;2023-06-19T12:11:32;30.12;41.56
69324;DHT22;56470;47.350;8.718;2023-06-19T12:13:57;30.09;41.64
69324;DHT22;56470;47.350;8.718;2023-06-19T12:16:23;30.09;41.61
69324;DHT22;56470;47.350;8.718;2023-06-19T12:18:48;30.08;41.60
69324;DHT22;56470;47.350;8.718;2023-06-19T12:21:13;30.01;41.52
69324;DHT22;56470;47.350;8.718;2023-06-19T12:23:38;30.01;41.41
69324;DHT22;56470;47.350;8.718;2023-06-19T12:26:04;30.01;41.37
69324;DHT22;56470;47.350;8.718;2023-06-19T12:28:29;29.98;41.01
69324;DHT22;56470;47.350;8.718;2023-06-19T12:30:55;29.91;41.03
69324;DHT22;56470;47.350;8.718;2023-06-19T12:33:21;29.90;41.31
69324;DHT22;56470;47.350;8.718;2023-06-19T12:35:47;29.92;41.57
69324;DHT22;56470;47.350;8.718;2023-06-19T12:38:12;29.90;41.63
69324;DHT22;56470;47.350;8.718;2023-06-19T12:40:38;29.90;41.72
69324;DHT22;56470;47.350;8.718;2023-06-19T12:43:04;29.91;41.84
69324;DHT22;56470;47.350;8.718;2023-06-19T12:45:29;29.91;41.95
69324;DHT22;56470;47.350;8.718;2023-06-19T12:47:55;29.84;42.12
69324;DHT22;56470;47.350;8.718;2023-06-19T12:50:20;29.84;42.19
69324;DHT22;56470;47.350;8.718;2023-06-19T12:52:45;29.78;42.36
69324;DHT22;56470;47.350;8.718;2023-06-19T12:55:11;29.77;42.36
69324;DHT22;56470;47.350;8.718;2023-06-19T12:57:36;29.78;42.26
69324;DHT22;56470;47.350;8.718;2023-06-19T13:00:02;29.81;42.13
69324;DHT22;56470;47.350;8.718;2023-06-19T13:02:30;29.81;42.12
69324;DHT22;56470;47.350;8.718;2023-06-19T13:04:56;29.85;42.01
69324;DHT22;56470;47.350;8.718;2023-06-19T13:07:23;29.81;42.02
69324;DHT22;56470;47.350;8.718;2023-06-19T13:09:50;29.82;42.08
69324;DHT22;56470;47.350;8.718;2023-06-19T13:12:16;29.81;41.98
69324;DHT22;56470;47.350;8.718;2023-06-19T13:14:41;29.82;41.87
69324;DHT22;56470;47.350;8.718;2023-06-19T13:17:07;29.82;41.70
69324;DHT22;56470;47.350;8.718;2023-06-19T13:19:32;29.81;41.77
69324;DHT22;56470;47.350;8.718;2023-06-19T13:21:57;29.81;41.80
69324;DHT22;56470;47.350;8.718;2023-06-19T13:24:23;29.82;41.73
69324;DHT22;56470;47.350;8.718;2023-06-19T13:26:48;29.77;41.63
69324;DHT22;56470;47.350;8.718;2023-06-19T13:29:14;29.80;41.47
69324;DHT22;56470;47.350;8.718;2023-06-19T13:31:40;29.78;41.13
69324;DHT22;56470;47.350;8.718;2023-06-19T13:34:05;29.77;40.95
69324;DHT22;56470;47.350;8.718;2023-06-19T13:36:30;29.74;40.74
69324;DHT22;56470;47.350;8.718;2023-06-19T13:38:56;29.73;40.48
69324;DHT22;56470;47.350;8.718;2023-06-19T13:41:21;29.71;40.34
69324;DHT22;56470;47.350;8.718;2023-06-19T13:43:49;29.74;40.31
69324;DHT22;56470;47.350;8.718;2023-06-19T13:46:15;29.73;40.16
69324;DHT22;56470;47.350;8.718;2023-06-19T13:48:40;29.74;39.94
69324;DHT22;56470;47.350;8.718;2023-06-19T13:51:05;29.71;40.03
69324;DHT22;56470;47.350;8.718;2023-06-19T13:53:30;29.77;39.99
69324;DHT22;56470;47.350;8.718;2023-06-19T13:55:56;29.78;39.82
69324;DHT22;56470;47.350;8.718;2023-06-19T13:58:21;29.80;39.81
69324;DHT22;56470;47.350;8.718;2023-06-19T14:00:46;29.80;39.78
69324;DHT22;56470;47.350;8.718;2023-06-19T14:03:13;29.77;39.80
69324;DHT22;56470;47.350;8.718;2023-06-19T14:05:38;29.76;39.75
69324;DHT22;56470;47.350;8.718;2023-06-19T14:08:04;29.76;39.86
69324;DHT22;56470;47.350;8.718;2023-06-19T14:10:29;29.76;39.99
69324;DHT22;56470;47.350;8.718;2023-06-19T14:12:55;29.78;39.93
69324;DHT22;56470;47.350;8.718;2023-06-19T14:15:20;29.77;40.06
69324;DHT22;56470;47.350;8.718;2023-06-19T14:17:48;29.80;39.76
69324;DHT22;56470;47.350;8.718;2023-06-19T14:20:14;29.82;39.76
69324;DHT22;56470;47.350;8.718;2023-06-19T14:22:39;29.81;39.65
69324;DHT22;56470;47.350;8.718;2023-06-19T14:25:05;29.84;39.70
69324;DHT22;56470;47.350;8.718;2023-06-19T14:27:30;29.84;39.57
69324;DHT22;56470;47.350;8.718;2023-06-19T14:29:55;29.80;39.76
69324;DHT22;56470;47.350;8.718;2023-06-19T14:32:22;29.78;39.80
69324;DHT22;56470;47.350;8.718;2023-06-19T14:34:48;29.78;39.71
69324;DHT22;56470;47.350;8.718;2023-06-19T14:37:14;29.77;39.77
69324;DHT22;56470;47.350;8.718;2023-06-19T14:39:39;29.77;39.75
69324;DHT22;56470;47.350;8.718;2023-06-19T14:42:05;29.78;39.68
69324;DHT22;56470;47.350;8.718;2023-06-19T14:44:33;29.80;39.55
69324;DHT22;56470;47.350;8.718;2023-06-19T14:46:59;29.81;39.72
69324;DHT22;56470;47.350;8.718;2023-06-19T14:49:24;29.77;39.67
69324;DHT22;56470;47.350;8.718;2023-06-19T14:51:52;29.73;39.63
69324;DHT22;56470;47.350;8.718;2023-06-19T14:54:17;29.76;39.76
69324;DHT22;56470;47.350;8.718;2023-06-19T14:56:44;29.76;39.98
69324;DHT22;56470;47.350;8.718;2023-06-19T14:59:10;29.77;40.11
69324;DHT22;56470;47.350;8.718;2023-06-19T15:01:35;29.76;40.31
69324;DHT22;56470;47.350;8.718;2023-06-19T15:04:01;29.71;40.62
69324;DHT22;56470;47.350;8.718;2023-06-19T15:06:26;29.71;40.84
69324;DHT22;56470;47.350;8.718;2023-06-19T15:08:52;29.71;41.03
69324;DHT22;56470;47.350;8.718;2023-06-19T15:11:17;29.70;41.14
69324;DHT22;56470;47.350;8.718;2023-06-19T15:13:42;29.73;41.00
69324;DHT22;56470;47.350;8.718;2023-06-19T15:16:08;29.66;41.14
69324;DHT22;56470;47.350;8.718;2023-06-19T15:18:37;29.54;41.01
69324;DHT22;56470;47.350;8.718;2023-06-19T15:21:06;29.43;40.67
69324;DHT22;56470;47.350;8.718;2023-06-19T15:23:32;29.42;40.57
69324;DHT22;56470;47.350;8.718;2023-06-19T15:25:58;29.39;40.49
69324;DHT22;56470;47.350;8.718;2023-06-19T15:28:23;29.45;40.51
69324;DHT22;56470;47.350;8.718;2023-06-19T15:30:49;29.42;40.68
69324;DHT22;56470;47.350;8.718;2023-06-19T15:33:15;29.30;41.43
69324;DHT22;56470;47.350;8.718;2023-06-19T15:35:40;29.25;41.96
69324;DHT22;56470;47.350;8.718;2023-06-19T15:38:09;29.11;42.19
69324;DHT22;56470;47.350;8.718;2023-06-19T15:40:34;28.95;42.23
69324;DHT22;56470;47.350;8.718;2023-06-19T15:43:00;28.75;42.79
69324;DHT22;56470;47.350;8.718;2023-06-19T15:45:25;28.50;44.24
69324;DHT22;56470;47.350;8.718;2023-06-19T15:47:50;28.23;45.89
69324;DHT22;56470;47.350;8.718;2023-06-19T15:50:16;28.05;46.41
69324;DHT22;56470;47.350;8.718;2023-06-19T15:52:41;27.91;46.83
69324;DHT22;56470;47.350;8.718;2023-06-19T15:55:07;27.77;47.02
69324;DHT22;56470;47.350;8.718;2023-06-19T15:57:32;27.67;47.14
69324;DHT22;56470;47.350;8.718;2023-06-19T15:59:58;27.63;46.87
69324;DHT22;56470;47.350;8.718;2023-06-19T16:02:23;27.63;46.58
69324;DHT22;56470;47.350;8.718;2023-06-19T16:04:48;27.63;46.68
69324;DHT22;56470;47.350;8.718;2023-06-19T16:07:14;27.53;46.91
69324;DHT22;56470;47.350;8.718;2023-06-19T16:09:41;27.54;46.81
69324;DHT22;56470;47.350;8.718;2023-06-19T16:12:07;27.60;46.72
69324;DHT22;56470;47.350;8.718;2023-06-19T16:14:33;27.68;46.89
69324;DHT22;56470;47.350;8.718;2023-06-19T16:16:58;27.57;47.76
69324;DHT22;56470;47.350;8.718;2023-06-19T16:19:23;27.49;47.84
69324;DHT22;56470;47.350;8.718;2023-06-19T16:21:49;27.38;48.37
69324;DHT22;56470;47.350;8.718;2023-06-19T16:24:14;27.28;48.56
69324;DHT22;56470;47.350;8.718;2023-06-19T16:26:39;27.21;48.69
69324;DHT22;56470;47.350;8.718;2023-06-19T16:29:04;27.21;48.77
69324;DHT22;56470;47.350;8.718;2023-06-19T16:31:30;27.09;48.25
69324;DHT22;56470;47.350;8.718;2023-06-19T16:33:55;27.01;48.39
69324;DHT22;56470;47.350;8.718;2023-06-19T16:36:20;26.88;48.48
69324;DHT22;56470;47.350;8.718;2023-06-19T16:38:47;26.70;48.05
69324;DHT22;56470;47.350;8.718;2023-06-19T16:41:13;26.57;48.24
69324;DHT22;56470;47.350;8.718;2023-06-19T16:43:38;26.53;48.34
69324;DHT22;56470;47.350;8.718;2023-06-19T16:46:04;26.46;48.27
69324;DHT22;56470;47.350;8.718;2023-06-19T16:48:29;26.36;48.76
69324;DHT22;56470;47.350;8.718;2023-06-19T16:50:55;26.35;48.76
69324;DHT22;56470;47.350;8.718;2023-06-19T16:53:20;26.40;48.94
69324;DHT22;56470;47.350;8.718;2023-06-19T16:55:45;26.43;49.20
69324;DHT22;56470;47.350;8.718;2023-06-19T16:58:11;26.36;49.62
69324;DHT22;56470;47.350;8.718;2023-06-19T17:00:36;26.31;50.21
69324;DHT22;56470;47.350;8.718;2023-06-19T17:03:01;26.25;50.32
69324;DHT22;56470;47.350;8.718;2023-06-19T17:05:27;26.21;50.44
69324;DHT22;56470;47.350;8.718;2023-06-19T17:07:52;26.28;50.26
69324;DHT22;56470;47.350;8.718;2023-06-19T17:10:17;26.32;50.28
69324;DHT22;56470;47.350;8.718;2023-06-19T17:12:43;26.28;50.46
69324;DHT22;56470;47.350;8.718;2023-06-19T17:15:09;26.28;50.75
69324;DHT22;56470;47.350;8.718;2023-06-19T17:17:34;26.35;50.95
69324;DHT22;56470;47.350;8.718;2023-06-19T17:19:59;26.42;50.88
69324;DHT22;56470;47.350;8.718;2023-06-19T17:22:25;26.42;51.09
69324;DHT22;56470;47.350;8.718;2023-06-19T17:24:50;26.26;51.65
69324;DHT22;56470;47.350;8.718;2023-06-19T17:27:15;26.21;51.74
69324;DHT22;56470;47.350;8.718;2023-06-19T17:29:41;26.21;51.94
69324;DHT22;56470;47.350;8.718;2023-06-19T17:32:06;26.16;52.11
69324;DHT22;56470;47.350;8.718;2023-06-19T17:34:33;26.12;51.85
69324;DHT22;56470;47.350;8.718;2023-06-19T17:36:59;26.09;51.95
69324;DHT22;56470;47.350;8.718;2023-06-19T17:39:24;26.01;52.19
69324;DHT22;56470;47.350;8.718;2023-06-19T17:41:49;25.92;51.89
69324;DHT22;56470;47.350;8.718;2023-06-19T17:44:15;25.92;51.98
69324;DHT22;56470;47.350;8.718;2023-06-19T17:46:40;25.99;51.87
69324;DHT22;56470;47.350;8.718;2023-06-19T17:49:06;26.04;51.79
69324;DHT22;56470;47.350;8.718;2023-06-19T17:51:32;26.14;51.58
69324;DHT22;56470;47.350;8.718;2023-06-19T17:53:57;26.15;51.40
69324;DHT22;56470;47.350;8.718;2023-06-19T17:56:23;26.16;51.21
69324;DHT22;56470;47.350;8.718;2023-06-19T17:58:48;26.14;51.16
69324;DHT22;56470;47.350;8.718;2023-06-19T18:01:14;26.15;51.31
69324;DHT22;56470;47.350;8.718;2023-06-19T18:03:39;26.16;51.36
69324;DHT22;56470;47.350;8.718;2023-06-19T18:06:05;26.11;51.31
69324;DHT22;56470;47.350;8.718;2023-06-19T18:08:30;26.09;51.34
69324;DHT22;56470;47.350;8.718;2023-06-19T18:10:56;26.04;51.33
69324;DHT22;56470;47.350;8.718;2023-06-19T18:13:22;25.98;51.59
69324;DHT22;56470;47.350;8.718;2023-06-19T18:15:48;25.90;51.72
69324;DHT22;56470;47.350;8.718;2023-06-19T18:18:13;25.91;51.83
69324;DHT22;56470;47.350;8.718;2023-06-19T18:20:38;25.97;51.81
69324;DHT22;56470;47.350;8.718;2023-06-19T18:23:06;25.94;51.82
69324;DHT22;56470;47.350;8.718;2023-06-19T18:25:31;25.90;51.93
69324;DHT22;56470;47.350;8.718;2023-06-19T18:27:56;25.97;52.16
69324;DHT22;56470;47.350;8.718;2023-06-19T18:30:22;25.91;52.11
69324;DHT22;56470;47.350;8.718;2023-06-19T18:32:47;25.87;52.07
69324;DHT22;56470;47.350;8.718;2023-06-19T18:35:12;25.77;51.26
69324;DHT22;56470;47.350;8.718;2023-06-19T18:37:38;25.71;50.79
69324;DHT22;56470;47.350;8.718;2023-06-19T18:40:04;25.61;50.45
69324;DHT22;56470;47.350;8.718;2023-06-19T18:42:29;25.60;50.32
69324;DHT22;56470;47.350;8.718;2023-06-19T18:44:56;25.57;50.32
69324;DHT22;56470;47.350;8.718;2023-06-19T18:47:22;25.51;50.16
69324;DHT22;56470;47.350;8.718;2023-06-19T18:49:47;25.49;50.18
69324;DHT22;56470;47.350;8.718;2023-06-19T18:52:14;25.46;50.16
69324;DHT22;56470;47.350;8.718;2023-06-19T18:54:39;25.47;50.30
69324;DHT22;56470;47.350;8.718;2023-06-19T18:57:05;25.49;50.28
69324;DHT22;56470;47.350;8.718;2023-06-19T18:59:31;25.50;50.32
69324;DHT22;56470;47.350;8.718;2023-06-19T19:01:56;25.47;50.15
69324;DHT22;56470;47.350;8.718;2023-06-19T19:04:21;25.44;50.31
69324;DHT22;56470;47.350;8.718;2023-06-19T19:06:47;25.46;50.34
69324;DHT22;56470;47.350;8.718;2023-06-19T19:09:12;25.44;50.36
69324;DHT22;56470;47.350;8.718;2023-06-19T19:11:37;25.29;50.29
69324;DHT22;56470;47.350;8.718;2023-06-19T19:14:03;25.25;50.68
69324;DHT22;56470;47.350;8.718;2023-06-19T19:16:28;25.26;50.65
69324;DHT22;56470;47.350;8.718;2023-06-19T19:18:53;25.14;50.72
69324;DHT22;56470;47.350;8.718;2023-06-19T19:21:19;24.99;50.79
69324;DHT22;56470;47.350;8.718;2023-06-19T19:23:44;24.84;50.68
69324;DHT22;56470;47.350;8.718;2023-06-19T19:26:09;24.77;50.75
69324;DHT22;56470;47.350;8.718;2023-06-19T19:28:35;24.70;50.74
69324;DHT22;56470;47.350;8.718;2023-06-19T19:31:01;24.70;50.65
69324;DHT22;56470;47.350;8.718;2023-06-19T19:33:26;24.63;50.70
69324;DHT22;56470;47.350;8.718;2023-06-19T19:35:52;24.59;50.63
69324;DHT22;56470;47.350;8.718;2023-06-19T19:38:17;24.54;50.71
69324;DHT22;56470;47.350;8.718;2023-06-19T19:40:45;24.57;50.68
69324;DHT22;56470;47.350;8.718;2023-06-19T19:43:10;24.53;50.73
69324;DHT22;56470;47.350;8.718;2023-06-19T19:45:37;24.49;50.84
69324;DHT22;56470;47.350;8.718;2023-06-19T19:48:02;24.50;50.85
69324;DHT22;56470;47.350;8.718;2023-06-19T19:50:28;24.47;50.89
69324;DHT22;56470;47.350;8.718;2023-06-19T19:52:53;24.41;50.92
69324;DHT22;56470;47.350;8.718;2023-06-19T19:55:18;24.41;50.99
69324;DHT22;56470;47.350;8.718;2023-06-19T19:57:44;24.44;51.13
69324;DHT22;56470;47.350;8.718;2023-06-19T20:00:09;24.39;51.28
69324;DHT22;56470;47.350;8.718;2023-06-19T20:02:35;24.32;51.48
69324;DHT22;56470;47.350;8.718;2023-06-19T20:05:00;24.22;51.73
69324;DHT22;56470;47.350;8.718;2023-06-19T20:07:25;24.23;51.82
69324;DHT22;56470;47.350;8.718;2023-06-19T20:09:51;24.32;51.87
69324;DHT22;56470;47.350;8.718;2023-06-19T20:12:16;24.33;51.92
69324;DHT22;56470;47.350;8.718;2023-06-19T20:14:41;24.36;52.10